Orlando, FL (32827)

8:19 PM EDT on September 02, 2014 (GMT -0400)
Orlando International | Change Station
CLOSE
Current Station
Airport
Location: Orlando International,
Elevation: 105 ft
Nearby Weather Stations

Elev 105 ft 28.43 °N, 81.31 °W | Updated 26 minutes ago

Mostly Cloudy
Mostly Cloudy
83 °F
Feels Like 88 °F
N
8
Wind Variable Wind from ESE

Today
High -- | Low -- °F
--% Chance of Precip.
Yesterday
High -- | Low -- °F
Precip. -- in
7:04 AM 7:45 PM
First Quarter, 56% visible
Pressure 30.02 in
Visibility 10.0 miles
Clouds Mostly Cloudy 25000 ft
Heat Index 88 °F
Dew Point 72 °F
Humidity 69%
Rainfall 0.00 in
Snow Depth Not available.
UV 0 out of 12
Pollen 7.80 out of 12
Air Quality Not available.
Flu Activity Not available.
METAR KMCO 022353Z 12007KT 10SM BKN250 28/22 A3002 RMK AO2 SLP165 60000 T02830222 10344 20278 53005

More Conditions Fewer Conditions

Pressure 30.02 in
Visibility 10.0 miles
Clouds Mostly Cloudy 25000 ft
Heat Index 88 °F
Dew Point 72 °F
Humidity 69%
Rainfall 0.00 in
Snow Depth Not available.
UV 0 out of 12
Pollen 7.80 out of 12
Air Quality Not available.
Flu Activity Not available.
METAR KMCO 022353Z 12007KT 10SM BKN250 28/22 A3002 RMK AO2 SLP165 60000 T02830222 10344 20278 53005

More Conditions Fewer Conditions

10-Day Weather Forecast

Almanac

Astronomy

Sep. 02, 2014 Rise Set
Actual Time 7:04 AM EDT 7:45 PM EDT
Civil Twilight 6:40 AM EDT 8:09 PM EDT
Nautical Twilight 6:11 AM EDT 8:37 PM EDT
Astronomical Twilight 5:43 AM EDT 9:05 PM EDT
Moon 2:12 PM EDT (9/2) 12:19 AM EDT (9/2)
Length of Visible Light 13h 29m
Length of Day
12h 41m
Tomorrow will be 1m 39s shorter.
First Quarter, 56% of the Moon is Illuminated
Today
First Quarter
Sep 8
Full
Sep 15
Last Quarter
Sep 24
New
Oct 1
First Quarter

Today's Extremes

State Highs State Lows

Community

WunderPhotos

Upload Photos

1,749,807 photos uploaded!

Nearby

Air Quality

  Air Quality AQ Index Pollutant
Yesterday Moderate
PM2.5
Yesterday Good
OZONE
Tuesday Good
OZONE
Wednesday Good
PM2.5

Snow Depth

Station Depth Elevation
No new snow has been reported.

Earthquake Activity

City Distance Mag. Time & Date
No recent earthquake activity has been reported nearby.
Minimum magnitude displayed is 2.5.

Coastal Water Temperatures

Place Temperature
No Stations Reporting

Nearby Weather Stations